Strona główna
METAR-TAF:

METAR-TAF

Lotnisko :

Vilhena, Rondônia, Brazylia

Szerokość geograficzna: 12-42S, Długość geograficzna: 060-06W, wysokość: 612 m

Aktualna obserwacja pogody

Raport powstał 50 minut temu, godzina 23:00 UTC
Wiatr 5 kt od północ
Temperatura 27°C
Wilgotność 58%
Ciśnienie 1014 hPa
Widzialność: 7000 m

METAR: SBVH 172300Z 36005KT 7000 NSC 27/18 Q1014

czas: 19:50 (23:50 UTC)

Prognoza

Raport powstał 7 godziny i 50 minut temu, godzina 16:00 UTC
Prognoza ważna od 17 godzina 18 UTC do 18 godzina 06 UTC
Wiatr 10 kt od północ
Widzialność 10 km lub więcej
Brak chmur poniżej 1500 m i brak chmur cumulonimbus
Stopniowe zmiany
od 17 godzina 21 UTC do 17 godzina 23 UTC
Wiatr 7 kt od północny wschód
Widzialność 10 km lub więcej
Mało chmury na wysokości 2500 ft

TAF: SBVH 171600Z 1718/1806 01010KT CAVOK TX34/1719Z TN24/1723Z BECMG 1721/1723 05007KT 9999 FEW025 RMK PGB

Obserwacja i prognoza pogody dla ponad 4000 lotnisk (raport METAR i TAF).

Dostępne stacje oznaczono żółtymi i czerwonymi punktami na mapie.

Najedź kursorem aby zobaczyć nazwę stacji.

Kliknij aby zobaczyć obserwacje i prognozy pogody.

Aby zmienić mapę: kliknij na zielony przycisk z czarnym krzyżykiem, aby powiększyć; na zielony przycisk z myślnikiem, aby pomniejszyć; na zielone strzałki, aby przejść do map sąsiednich.


METAR-TAF: